Aérodrome :
LOGIN :

S'inscrire | Disclaimer

   EN    FR    IT 

 










Légende :    VFR   VFR Marginal   IFR   IFR Intensif   IFR Très Intensif
Visi : 
Plafond : 
>= 8 km
>= 3000ft
5 à 8 km
1000 à 3000 ft
1500m à 5 km
500 à 1000 ft
800 à 1500m
200 à 500 ft
< 800m
< 200 ft
Symboles :   Orages  Brouillard  Fortes neiges  Fortes précipitations  Vent > 20 kt
SIGMETs :   Divers  Orages  Givrage  Turbulence  Onde Orograph.  Cendres Volcan.






- Altitude de l'aérodrome : 1906 ft
- Code IATA : INN


LOWI - Innsbruck

DERNIER METAR :
  • 220050Z AUTO 28007KT 9999 FEW150 13/10 Q1023

METARs EXPIRÉS :
  • 220020Z AUTO 24003KT 170V270 9999 FEW120 SCT160 BKN170 14/11 Q1023
  • 212350Z AUTO 26003KT 170V310 9999 FEW150 BKN170 13/10 Q1023
  • 212320Z AUTO VRB03KT 9999 FEW140 SCT160 BKN170 14/11 Q1023
  • 212250Z AUTO 29007KT 9999 FEW160 BKN170 14/11 Q1023
  • 212220Z AUTO VRB04KT 9999 FEW170 BKN200 15/11 Q1022

TAF TAF LOWI
Valide du 22 à 00h jusqu'au 23 à 00h UTC


212315Z 2200/2224 27006KT 9999 FEW060 BKN200 TX23/2214Z TN08/2224Z
BECMG 2209/2211 10010G20KT CAVOK
TEMPO 2212/2217 13015G25KT
BECMG 2217/2219 27005KT



MET'MAP, la Météo Aéronautique d'un coup d'oeil ! - Copyright ORBIFLY Décembre 2007 - Disclaimer

ORBIFLY MET'MAP TEAM :

Programmation & Développement : Alexandra Zaïnal
Conception & Développement : Baudouin d'Aumeries
Co-Programmation & Développement : Marc-Olivier Méhu
Soutien technique & logistique : Manuel Goepfert

Contact : metmap@orbifly.com




SOURCES & CREDITS :

   NOAA